Time;durP1;ratioP1;P1;durP2;ratioP2;P2;SDS_P1;SDS_P2;PMS_P1;PMS_P2;Temp;Humidity;BMP_temperature;BMP_pressure;BME280_temperature;BME280_humidity;BME280_pressure;Samples;Min_cycle;Max_cycle;Signal;HPM_P1;HPM_P2
2021/10/25 00:00:27;;;;;;;9.60;4.87;;;;;;;3.15;58.44;103011.80;1812305;78;27468;-62
2021/10/25 00:02:57;;;;;;;11.78;6.17;;;;;;;3.17;58.33;103013.50;1798163;78;25764;-61
2021/10/25 00:05:25;;;;;;;12.33;5.47;;;;;;;3.18;58.31;103011.73;1785633;79;25760;-61
2021/10/25 00:07:53;;;;;;;10.58;5.95;;;;;;;3.15;58.33;103013.98;1797042;79;26266;-62
2021/10/25 00:10:20;;;;;;;13.78;5.60;;;;;;;3.19;58.33;103013.45;1796611;79;25750;-62
2021/10/25 00:12:47;;;;;;;9.13;5.58;;;;;;;3.13;58.54;103011.36;1766796;79;28142;-62
2021/10/25 00:15:14;;;;;;;12.68;4.85;;;;;;;3.11;58.77;103017.63;1798116;79;25908;-62
2021/10/25 00:17:41;;;;;;;9.70;5.10;;;;;;;3.10;58.47;103011.42;1796962;79;25703;-62
2021/10/25 00:20:11;;;;;;;9.18;5.55;;;;;;;3.13;58.30;103022.00;1796493;79;25726;-64
2021/10/25 00:22:39;;;;;;;12.58;6.17;;;;;;;3.20;58.32;103020.53;1794933;79;25800;-62
2021/10/25 00:25:08;;;;;;;11.80;5.50;;;;;;;3.23;58.48;103013.36;1766853;79;27380;-63
2021/10/25 00:27:35;;;;;;;13.38;5.55;;;;;;;3.24;58.26;103018.25;1798324;79;25849;-63
2021/10/25 00:30:05;;;;;;;10.50;5.33;;;;;;;3.27;58.18;103016.86;1796692;78;25784;-63
2021/10/25 00:32:33;;;;;;;13.83;6.53;;;;;;;3.27;58.36;103016.86;1788921;79;25802;-63
2021/10/25 00:35:00;;;;;;;12.90;6.33;;;;;;;3.29;58.22;103016.34;1797954;79;25871;-62
2021/10/25 00:37:28;;;;;;;15.15;5.42;;;;;;;3.29;58.32;103016.34;1797847;79;27563;-62
2021/10/25 00:39:55;;;;;;;16.07;5.83;;;;;;;3.29;58.04;103017.24;1797965;79;25969;-62
2021/10/25 00:42:22;;;;;;;12.07;5.45;;;;;;;3.34;58.01;103008.27;1796652;79;25833;-63
2021/10/25 00:44:49;;;;;;;11.73;5.62;;;;;;;3.36;57.92;103008.64;1796146;79;26273;-63
2021/10/25 00:47:16;;;;;;;17.37;7.12;;;;;;;3.42;57.86;103007.20;1797138;79;25801;-62
2021/10/25 00:49:44;;;;;;;8.95;5.40;;;;;;;3.47;57.71;103007.09;1797280;79;27456;-62
2021/10/25 00:52:14;;;;;;;10.58;5.53;;;;;;;3.51;57.61;103006.09;1797099;79;25729;-62
2021/10/25 00:54:42;;;;;;;12.15;5.65;;;;;;;3.54;57.53;103003.84;1797961;79;25845;-63
2021/10/25 00:57:09;;;;;;;15.00;5.92;;;;;;;3.56;57.54;103002.89;1797421;79;26172;-63
2021/10/25 00:59:37;;;;;;;12.98;5.60;;;;;;;3.60;57.59;103005.02;1797998;79;25758;-63
2021/10/25 01:02:05;;;;;;;12.68;5.42;;;;;;;3.59;57.46;103005.93;1791294;79;27406;-63
2021/10/25 01:04:33;;;;;;;10.15;4.97;;;;;;;3.57;57.74;103001.09;1803607;78;26243;-63
2021/10/25 01:07:01;;;;;;;9.40;5.33;;;;;;;3.53;57.92;103006.08;1810231;78;25693;-63
2021/10/25 01:09:28;;;;;;;19.30;6.42;;;;;;;3.48;57.79;103005.30;1785324;80;26308;-63
2021/10/25 01:11:56;;;;;;;13.58;5.47;;;;;;;3.41;58.12;103001.89;1817477;78;25891;-62
2021/10/25 01:14:23;;;;;;;8.25;4.78;;;;;;;3.34;58.07;103002.51;1788726;78;27553;-63
2021/10/25 01:16:51;;;;;;;11.73;4.75;;;;;;;3.26;58.41;102997.34;1803161;78;25830;-62
2021/10/25 01:19:18;;;;;;;10.23;5.65;;;;;;;3.22;58.31;103002.77;1785548;80;25905;-62
2021/10/25 01:21:45;;;;;;;9.18;4.83;;;;;;;3.24;58.37;102995.63;1817800;78;25878;-62
2021/10/25 01:24:12;;;;;;;11.80;5.25;;;;;;;3.27;58.55;102995.58;1785580;80;25948;-62
2021/10/25 01:26:40;;;;;;;9.75;4.40;;;;;;;3.30;58.63;102991.50;1797164;78;27469;-62
2021/10/25 01:29:07;;;;;;;13.43;5.05;;;;;;;3.34;58.92;102995.86;1815294;78;25867;-62
2021/10/25 01:31:34;;;;;;;12.53;4.45;;;;;;;3.38;59.01;102991.34;1785414;80;25839;-62
2021/10/25 01:34:02;;;;;;;7.75;4.60;;;;;;;3.43;59.04;102992.09;1816854;78;25899;-63
2021/10/25 01:36:31;;;;;;;6.90;4.28;;;;;;;3.47;59.15;102991.12;1810101;78;26158;-63
2021/10/25 01:38:59;;;;;;;11.65;4.53;;;;;;;3.52;59.11;102989.22;1790265;78;28012;-62
2021/10/25 01:41:27;;;;;;;13.65;4.85;;;;;;;3.58;58.97;102987.77;1800299;78;25827;-63
2021/10/25 01:43:59;;;;;;;14.43;5.47;;;;;;;3.62;58.78;102991.67;1815912;78;25763;-62
2021/10/25 01:46:27;;;;;;;8.98;5.45;;;;;;;3.60;58.50;102989.05;1781507;80;43592;-62
2021/10/25 01:48:54;;;;;;;8.55;5.20;;;;;;;3.58;58.38;102994.86;1817126;78;25733;-63
2021/10/25 01:51:22;;;;;;;11.00;5.45;;;;;;;3.54;58.28;102992.73;1771363;79;27434;-63
2021/10/25 01:53:49;;;;;;;9.15;5.72;;;;;;;3.50;58.06;102996.83;1809399;79;25889;-62
2021/10/25 01:56:16;;;;;;;10.93;5.12;;;;;;;3.38;58.12;102994.86;1775400;79;25774;-63
2021/10/25 01:58:52;;;;;;;9.93;5.90;;;;;;;3.32;58.15;103006.12;1804549;79;25721;-62
2021/10/25 02:01:21;;;;;;;12.68;5.30;;;;;;;3.21;58.31;102996.58;1780899;79;25793;-63
2021/10/25 02:03:48;;;;;;;22.90;5.70;;;;;;;3.13;58.33;102998.06;1800856;79;27414;-63
2021/10/25 02:06:18;;;;;;;15.20;5.37;;;;;;;3.05;58.44;102998.69;1811445;79;25816;-63
2021/10/25 02:08:48;;;;;;;12.03;5.72;;;;;;;2.97;58.29;102996.64;1812659;79;25795;-63
2021/10/25 02:13:45;;;;;;;17.77;6.05;;;;;;;2.95;58.44;102994.47;1879558;75;25675;-61
2021/10/25 02:16:12;;;;;;;14.43;5.28;;;;;;;2.82;58.52;102994.70;1848337;76;25827;-61
2021/10/25 02:18:41;;;;;;;10.45;5.67;;;;;;;2.76;58.57;102992.64;1847895;76;27675;-62
2021/10/25 02:21:13;;;;;;;9.23;5.50;;;;;;;2.70;58.64;102994.08;1841886;77;25712;-62
2021/10/25 02:23:41;;;;;;;13.60;6.05;;;;;;;2.67;58.66;102989.70;1786074;80;26061;-63
2021/10/25 02:26:09;;;;;;;11.28;6.03;;;;;;;2.64;58.92;102991.97;1786185;80;25817;-63
2021/10/25 02:28:38;;;;;;;15.75;6.97;;;;;;;2.60;59.19;102994.72;1786041;79;25762;-63
2021/10/25 02:31:05;;;;;;;14.15;6.72;;;;;;;2.57;59.50;102998.75;1781889;80;28199;-63
2021/10/25 02:33:34;;;;;;;15.88;5.25;;;;;;;2.56;59.99;102995.23;1786860;80;25709;-63
2021/10/25 02:36:05;;;;;;;15.43;7.30;;;;;;;2.57;59.97;102998.31;1786551;80;25754;-62
2021/10/25 02:38:34;;;;;;;14.83;6.47;;;;;;;2.56;60.30;102998.33;1785780;80;25758;-62
2021/10/25 02:41:01;;;;;;;19.02;6.45;;;;;;;2.57;60.38;102996.09;1785587;80;25808;-62
2021/10/25 02:43:28;;;;;;;11.10;6.00;;;;;;;2.61;60.45;102995.14;1782711;80;28257;-62
2021/10/25 02:45:59;;;;;;;12.98;5.83;;;;;;;2.64;60.38;102997.29;1782380;80;26663;-62
2021/10/25 02:48:27;;;;;;;14.25;6.42;;;;;;;2.65;60.23;102993.73;1776407;79;25776;-62
2021/10/25 02:50:56;;;;;;;12.53;6.20;;;;;;;2.63;60.38;102988.89;1796043;78;25785;-63
2021/10/25 02:53:26;;;;;;;11.40;6.00;;;;;;;2.55;60.07;102992.62;1785722;79;25817;-62
2021/10/25 02:55:53;;;;;;;25.55;7.97;;;;;;;2.48;59.97;102992.71;1795228;79;27484;-62
2021/10/25 02:58:20;;;;;;;13.58;6.75;;;;;;;2.42;60.00;102993.30;1777862;80;25812;-63
2021/10/25 03:00:49;;;;;;;19.60;6.97;;;;;;;2.33;59.96;102989.02;1774622;80;25789;-63
2021/10/25 03:03:17;;;;;;;10.58;6.42;;;;;;;2.23;59.95;102996.72;1774560;80;25774;-62
2021/10/25 03:05:44;;;;;;;20.50;6.50;;;;;;;2.18;60.06;102995.48;1781561;80;25778;-62
2021/10/25 03:08:11;;;;;;;12.43;5.70;;;;;;;2.12;60.49;103002.23;1782898;80;28164;-63
2021/10/25 03:10:39;;;;;;;10.32;6.30;;;;;;;2.05;60.56;102993.95;1775799;80;25788;-63
2021/10/25 03:13:08;;;;;;;10.35;6.15;;;;;;;2.00;61.10;102996.22;1779963;80;25721;-63
2021/10/25 03:15:36;;;;;;;13.93;6.10;;;;;;;1.97;61.31;102993.60;1776766;80;25833;-61
2021/10/25 03:18:05;;;;;;;11.97;5.83;;;;;;;1.97;61.70;102989.63;1778931;80;25672;-65
2021/10/25 03:20:34;;;;;;;16.60;6.72;;;;;;;1.94;62.25;103000.75;1772607;80;27638;-62
2021/10/25 03:23:01;;;;;;;14.98;6.33;;;;;;;1.91;62.84;103000.81;1773614;80;26289;-62
2021/10/25 03:25:29;;;;;;;13.62;7.25;;;;;;;1.89;62.29;102995.51;1772917;80;25805;-63
2021/10/25 03:27:56;;;;;;;10.78;6.17;;;;;;;1.88;62.35;103001.75;1773028;80;25749;-63
2021/10/25 03:30:24;;;;;;;12.15;5.95;;;;;;;1.87;62.59;103002.18;1775426;79;25746;-61
2021/10/25 03:32:52;;;;;;;13.58;6.83;;;;;;;1.83;62.59;102995.19;1772957;80;28226;-62
2021/10/25 03:35:27;;;;;;;16.75;6.62;;;;;;;1.80;62.41;102999.20;1766285;80;25761;-62
2021/10/25 03:37:56;;;;;;;10.20;5.95;;;;;;;1.75;62.33;103004.16;1771073;80;25773;-62
2021/10/25 03:40:26;;;;;;;12.80;6.20;;;;;;;1.69;62.26;103007.34;1752432;80;25820;-63
2021/10/25 03:42:55;;;;;;;14.73;7.30;;;;;;;1.62;62.05;103002.14;1782858;80;26437;-63
2021/10/25 03:45:33;;;;;;;15.13;7.45;;;;;;;1.56;62.27;103003.11;1778496;80;27544;-62
2021/10/25 03:50:27;;;;;;;12.00;6.95;;;;;;;1.51;62.60;103007.61;1774303;80;25734;-62
2021/10/25 03:53:18;;;;;;;10.10;6.40;;;;;;;1.48;63.03;102998.36;1775817;80;25861;-63
2021/10/25 03:55:54;;;;;;;19.30;7.62;;;;;;;1.45;63.24;103003.70;1777317;80;25765;-61
2021/10/25 03:58:42;;;;;;;13.95;6.28;;;;;;;1.42;63.24;103005.09;1774237;80;27503;-62
2021/10/25 04:28:26;;;;;;;11.00;5.83;;;;;;;1.12;63.41;103000.16;1778464;80;25816;-64
2021/10/25 04:31:00;;;;;;;11.10;5.75;;;;;;;1.06;63.45;102999.82;1771831;80;25793;-65
2021/10/25 04:33:33;;;;;;;16.17;6.15;;;;;;;1.03;63.60;103006.94;1771416;80;25801;-65
2021/10/25 04:36:02;;;;;;;14.07;5.00;;;;;;;1.01;64.15;103008.27;1754897;80;25910;-62
2021/10/25 04:38:43;;;;;;;9.20;5.53;;;;;;;1.02;64.62;103004.72;1771528;80;27540;-63
2021/10/25 04:41:10;;;;;;;13.90;6.42;;;;;;;0.99;64.56;103002.55;1773042;80;26451;-63
2021/10/25 04:43:39;;;;;;;11.85;5.10;;;;;;;0.94;64.81;103006.13;1776228;80;25940;-63
2021/10/25 04:46:07;;;;;;;18.20;6.03;;;;;;;0.93;64.63;103005.72;1784089;79;26472;-62
2021/10/25 04:48:35;;;;;;;12.80;5.72;;;;;;;0.93;64.79;103007.05;1782408;80;25761;-63
2021/10/25 04:51:04;;;;;;;10.95;6.33;;;;;;;0.94;64.83;103011.42;1754552;80;26678;-63
2021/10/25 04:53:39;;;;;;;13.00;6.15;;;;;;;0.96;64.81;103006.13;1739360;80;25856;-63
2021/10/25 04:56:07;;;;;;;17.85;6.85;;;;;;;0.95;64.84;103011.00;1778313;80;25844;-62
2021/10/25 04:58:34;;;;;;;10.53;5.55;;;;;;;0.94;64.83;103004.80;1783888;80;25820;-63
2021/10/25 05:01:01;;;;;;;17.65;6.22;;;;;;;0.95;64.66;103012.32;1783735;80;25670;-61
2021/10/25 05:03:31;;;;;;;16.67;5.70;;;;;;;0.94;64.62;103013.21;1778809;80;27168;-63
2021/10/25 05:05:59;;;;;;;13.13;6.25;;;;;;;0.94;64.44;103003.94;1775278;80;25809;-64
2021/10/25 05:08:28;;;;;;;14.98;6.70;;;;;;;0.96;64.68;103009.20;1775563;80;25538;-63
2021/10/25 05:10:56;;;;;;;13.55;7.05;;;;;;;0.92;65.36;103011.92;1777285;79;26117;-63
2021/10/25 05:13:24;;;;;;;9.80;5.87;;;;;;;0.88;65.42;103022.11;1778409;78;25746;-63
2021/10/25 05:15:50;;;;;;;11.33;5.45;;;;;;;0.90;65.77;103031.36;1777675;80;28137;-63
2021/10/25 05:18:18;;;;;;;12.25;6.67;;;;;;;0.87;66.36;103029.63;1778281;80;25715;-62
2021/10/25 05:20:46;;;;;;;18.92;7.50;;;;;;;0.86;66.22;103033.63;1809410;79;25813;-62
2021/10/25 05:23:13;;;;;;;13.32;6.35;;;;;;;0.84;65.89;103032.77;1789334;80;25694;-62
2021/10/25 05:25:41;;;;;;;16.40;6.20;;;;;;;0.85;65.99;103039.36;1785996;79;26237;-62
2021/10/25 05:28:08;;;;;;;14.38;6.08;;;;;;;0.91;65.92;103033.11;1758010;80;27483;-63
2021/10/25 05:30:35;;;;;;;17.52;6.22;;;;;;;0.96;66.00;103047.20;1784324;79;25769;-62
2021/10/25 05:33:03;;;;;;;16.10;5.72;;;;;;;1.02;65.94;103045.80;1785104;79;25763;-63
2021/10/25 05:35:31;;;;;;;16.15;7.25;;;;;;;1.06;65.80;103036.03;1790171;79;25781;-63
2021/10/25 05:38:00;;;;;;;14.93;7.83;;;;;;;1.13;65.85;103034.20;1778038;79;25717;-65
2021/10/25 05:40:35;;;;;;;13.20;7.28;;;;;;;1.20;65.86;103021.28;1787211;79;27951;-63
2021/10/25 05:43:03;;;;;;;18.07;8.23;;;;;;;1.22;65.84;103026.98;1784374;80;26134;-62
2021/10/25 05:45:31;;;;;;;13.00;8.23;;;;;;;1.26;65.84;103034.45;1789532;79;25627;-62
2021/10/25 05:47:59;;;;;;;17.12;7.87;;;;;;;1.35;65.60;103028.16;1798049;79;26049;-62
2021/10/25 05:50:26;;;;;;;14.87;8.33;;;;;;;1.43;65.35;103033.37;1792770;78;25711;-63
2021/10/25 05:52:53;;;;;;;18.77;7.65;;;;;;;1.51;65.25;103035.47;1792889;80;26926;-63
2021/10/25 05:55:23;;;;;;;18.82;8.25;;;;;;;1.61;65.03;103027.81;1799686;78;25763;-63
2021/10/25 05:57:53;;;;;;;21.10;8.53;;;;;;;1.68;64.85;103038.76;1776738;80;25707;-63
2021/10/25 06:00:32;;;;;;;34.63;11.05;;;;;;;1.71;64.88;103033.84;1777337;80;25833;-63
2021/10/25 06:02:58;;;;;;;23.70;9.85;;;;;;;1.78;64.78;103042.14;1752907;80;25781;-64
2021/10/25 06:05:30;;;;;;;19.73;10.15;;;;;;;1.83;64.59;103044.29;1775585;80;27462;-63
2021/10/25 06:08:01;;;;;;;26.17;11.22;;;;;;;1.91;64.60;103048.59;1784870;78;25539;-63
2021/10/25 06:10:31;;;;;;;23.92;10.63;;;;;;;1.97;64.42;103051.14;1788987;79;25832;-64
2021/10/25 06:13:04;;;;;;;26.40;12.70;;;;;;;2.05;64.37;103051.89;1799341;77;25707;-64
2021/10/25 06:15:40;;;;;;;32.98;11.85;;;;;;;2.12;64.20;103052.22;1792791;78;25971;-63
2021/10/25 06:18:10;;;;;;;17.73;10.23;;;;;;;2.20;63.99;103050.78;1793424;79;27944;-65
2021/10/25 06:20:40;;;;;;;25.65;10.48;;;;;;;2.26;63.91;103055.97;1784437;79;25786;-61
2021/10/25 06:23:13;;;;;;;26.23;11.03;;;;;;;2.31;63.73;103054.57;1784374;79;25797;-63
2021/10/25 06:25:53;;;;;;;32.40;12.33;;;;;;;2.38;63.68;103064.18;1790661;78;26411;-64
2021/10/25 06:28:25;;;;;;;23.25;10.40;;;;;;;2.47;63.70;103056.05;1804507;77;25757;-65
2021/10/25 06:31:08;;;;;;;31.27;12.05;;;;;;;2.54;63.38;103059.48;1768672;79;26451;-65
2021/10/25 06:33:54;;;;;;;20.80;11.20;;;;;;;2.62;63.23;103058.02;1775863;80;25987;-62
2021/10/25 06:36:22;;;;;;;31.55;11.75;;;;;;;2.71;63.03;103056.96;1771599;80;25880;-61
2021/10/25 06:38:55;;;;;;;23.52;10.50;;;;;;;2.76;62.85;103054.64;1753794;79;25877;-62
2021/10/25 06:41:23;;;;;;;24.47;10.03;;;;;;;2.88;62.78;103057.98;1784151;79;25755;-61
2021/10/25 06:43:53;;;;;;;26.68;10.60;;;;;;;2.94;62.17;103056.52;1795805;79;27013;-62
2021/10/25 06:46:20;;;;;;;29.67;10.38;;;;;;;3.00;62.14;103058.19;1791986;78;25792;-62
2021/10/25 06:48:49;;;;;;;27.30;11.78;;;;;;;3.09;62.08;103060.19;1792889;79;25693;-61
2021/10/25 06:51:29;;;;;;;37.10;11.63;;;;;;;3.18;61.81;103063.61;1796873;78;25845;-61
2021/10/25 06:53:56;;;;;;;32.08;13.10;;;;;;;3.25;61.64;103055.91;1792558;78;27305;-62
2021/10/25 06:56:26;;;;;;;34.20;12.23;;;;;;;3.37;61.57;103065.41;1792366;79;28290;-62
2021/10/25 06:58:53;;;;;;;28.70;13.58;;;;;;;3.48;61.36;103058.08;1792422;80;25725;-62
2021/10/25 07:01:24;;;;;;;36.45;12.93;;;;;;;3.56;61.18;103052.56;1791951;79;25797;-62
2021/10/25 07:03:52;;;;;;;44.35;12.78;;;;;;;3.69;60.85;103054.06;1772817;79;26148;-62
2021/10/25 07:06:22;;;;;;;30.85;11.57;;;;;;;3.80;60.83;103053.80;1792759;79;25734;-62
2021/10/25 07:08:52;;;;;;;26.90;10.15;;;;;;;3.92;60.68;103060.62;1793690;78;27452;-63
2021/10/25 07:11:20;;;;;;;20.62;9.30;;;;;;;4.03;60.21;103056.39;1795535;78;25902;-63
2021/10/25 07:13:50;;;;;;;18.50;10.78;;;;;;;4.15;59.73;103055.20;1781256;79;25892;-62
2021/10/25 07:16:22;;;;;;;33.78;15.50;;;;;;;4.25;59.05;103057.17;1778617;80;26553;-62
2021/10/25 07:19:17;;;;;;;25.82;11.10;;;;;;;4.35;58.91;103051.56;1771639;80;25771;-62
2021/10/25 07:21:48;;;;;;;26.23;9.48;;;;;;;4.50;58.81;103053.42;1771896;80;27494;-62
2021/10/25 08:06:59;;;;;;;23.73;10.25;;;;;;;7.15;52.52;103038.38;1767295;79;25753;-62
2021/10/25 08:09:36;;;;;;;26.65;11.22;;;;;;;7.36;52.07;103041.55;1789159;79;25733;-63
2021/10/25 08:12:02;;;;;;;32.38;10.70;;;;;;;7.55;51.81;103036.82;1772039;80;25893;-63
2021/10/25 08:14:35;;;;;;;47.48;18.77;;;;;;;7.69;50.57;103042.97;1788359;78;25730;-61
2021/10/25 08:17:02;;;;;;;42.60;19.02;;;;;;;7.89;50.97;103039.48;1758360;80;27465;-61
2021/10/25 08:19:33;;;;;;;40.43;15.43;;;;;;;8.13;50.29;103038.08;1790543;80;25710;-63
2021/10/25 08:22:11;;;;;;;36.65;14.03;;;;;;;8.33;50.29;103041.24;1777121;80;25975;-62
2021/10/25 08:24:43;;;;;;;33.92;13.30;;;;;;;8.58;48.40;103046.46;1788978;79;25744;-62
2021/10/25 08:27:17;;;;;;;33.53;12.28;;;;;;;8.76;47.15;103031.34;1768455;79;25698;-62
2021/10/25 08:29:47;;;;;;;35.60;10.95;;;;;;;8.97;48.71;103035.80;1772306;80;27441;-62
2021/10/25 08:35:20;;;;;;;21.27;9.13;;;;;;;9.50;47.97;103033.77;1785722;78;25719;-62
2021/10/25 08:40:41;;;;;;;36.30;9.28;;;;;;;10.10;46.85;103032.66;1748355;80;25772;-63
2021/10/25 08:43:10;;;;;;;26.82;9.05;;;;;;;10.36;45.85;103033.14;1770393;80;27526;-63
2021/10/25 08:45:38;;;;;;;24.70;8.08;;;;;;;10.60;42.38;103030.14;1765431;80;25798;-63
2021/10/25 08:48:08;;;;;;;17.67;8.43;;;;;;;10.72;43.71;103036.23;1761637;80;25929;-62
2021/10/25 08:50:35;;;;;;;21.97;8.43;;;;;;;11.13;43.50;103036.30;1772119;80;26523;-64
2021/10/25 08:53:07;;;;;;;16.52;8.30;;;;;;;11.86;42.29;103033.56;1752631;81;26276;-62
2021/10/25 08:55:36;;;;;;;16.60;8.98;;;;;;;12.94;42.15;103033.01;1764732;80;27573;-63
2021/10/25 08:58:06;;;;;;;18.30;6.97;;;;;;;13.96;40.84;103024.23;1780620;79;26590;-63
2021/10/25 09:00:41;;;;;;;16.07;6.37;;;;;;;14.80;39.78;103012.13;1776020;80;25753;-63
2021/10/25 09:03:13;;;;;;;11.93;4.03;;;;;;;15.62;37.13;103015.71;1758871;79;25842;-63
2021/10/25 09:06:00;;;;;;;19.12;4.95;;;;;;;16.28;35.97;103017.13;1772991;80;25805;-63
2021/10/25 09:08:32;;;;;;;9.48;3.40;;;;;;;16.90;35.81;103010.41;1760252;80;27595;-63
2021/10/25 09:11:00;;;;;;;9.93;4.53;;;;;;;17.60;34.49;103008.03;1776611;80;26047;-63
2021/10/25 09:13:30;;;;;;;19.10;4.97;;;;;;;18.19;33.93;103014.00;1774507;80;25872;-64
2021/10/25 09:16:03;;;;;;;16.87;3.42;;;;;;;18.76;33.20;103011.30;1772940;80;26183;-62
2021/10/25 09:18:40;;;;;;;16.10;4.05;;;;;;;19.23;31.78;103001.72;1644476;85;25879;-64
2021/10/25 09:21:13;;;;;;;2.72;1.90;;;;;;;19.61;30.77;103002.81;1775239;80;28224;-64
2021/10/25 09:23:52;;;;;;;6.87;2.00;;;;;;;19.95;28.53;103001.05;1782170;80;25820;-64
2021/10/25 09:26:24;;;;;;;6.75;2.77;;;;;;;20.23;27.62;103001.18;1762968;79;25725;-64
2021/10/25 09:28:56;;;;;;;4.10;2.60;;;;;;;20.55;27.96;103001.84;1780659;80;25732;-65
2021/10/25 09:31:33;;;;;;;7.00;2.87;;;;;;;21.01;28.39;102996.53;1773598;80;25801;-65
2021/10/25 09:34:12;;;;;;;8.23;2.70;;;;;;;21.43;26.86;102989.16;1762016;80;27484;-65
2021/10/25 09:36:49;;;;;;;4.90;1.80;;;;;;;21.79;26.79;102991.95;1734038;80;27203;-65
2021/10/25 09:39:23;;;;;;;2.47;1.27;;;;;;;22.23;25.95;102995.73;1767725;79;25797;-65
2021/10/25 09:42:18;;;;;;;7.37;2.12;;;;;;;22.54;23.53;102989.29;1766533;80;25853;-64
2021/10/25 09:50:10;;;;;;;7.97;2.62;;;;;;;22.49;22.44;102983.44;1792824;78;25748;-65
2021/10/25 09:52:41;;;;;;;4.90;2.72;;;;;;;22.09;23.13;102985.70;1788601;78;25811;-64
2021/10/25 09:55:16;;;;;;;;;;;;;;;22.39;23.27;102976.64;1769488;80;26519;-64
2021/10/25 10:00:34;;;;;;;7.97;2.87;;;;;;;23.38;22.49;102966.16;1758267;80;27528;-64
2021/10/25 10:03:05;;;;;;;9.58;2.85;;;;;;;23.62;21.52;102954.01;1793786;78;25802;-64
2021/10/25 10:05:38;;;;;;;5.40;3.20;;;;;;;23.98;21.03;102953.17;1782971;80;25885;-64
2021/10/25 10:08:09;;;;;;;5.83;2.60;;;;;;;24.05;20.61;102951.48;1787428;78;25975;-63
2021/10/25 10:10:38;;;;;;;7.35;3.25;;;;;;;23.90;20.96;102947.66;1797396;78;25904;-65
2021/10/25 10:13:17;;;;;;;8.43;2.92;;;;;;;23.96;21.04;102944.27;1772965;80;27587;-64
2021/10/25 10:15:47;;;;;;;7.85;2.50;;;;;;;23.90;20.30;102942.16;1754234;80;25905;-64
2021/10/25 10:18:23;;;;;;;7.53;2.55;;;;;;;24.05;20.73;102936.36;1770985;80;25792;-64
2021/10/25 10:21:11;;;;;;;5.72;2.77;;;;;;;24.69;19.52;102936.91;1762109;79;27590;-65
2021/10/25 10:23:47;;;;;;;42.85;3.25;;;;;;;24.60;19.53;102939.33;1766897;80;25758;-65
2021/10/25 10:26:16;;;;;;;6.37;2.40;;;;;;;24.79;19.43;102924.30;1761381;79;27650;-65
2021/10/25 10:28:49;;;;;;;7.20;2.55;;;;;;;25.31;17.89;102915.92;1771373;80;26896;-65
2021/10/25 10:31:24;;;;;;;;;;;;;;;25.16;18.30;102919.98;1767462;80;26483;-65
2021/10/25 10:33:59;;;;;;;14.03;2.70;;;;;;;25.22;19.44;102917.02;1732568;80;25815;-64
2021/10/25 10:36:31;;;;;;;;;;;;;;;25.64;18.93;102913.45;1765588;80;25980;-64
2021/10/25 10:39:10;;;;;;;13.85;3.22;;;;;;;25.51;16.95;102902.20;1769266;79;27851;-64
2021/10/25 10:41:58;;;;;;;10.50;3.77;;;;;;;25.77;18.76;102908.17;1803579;79;25818;-63
2021/10/25 10:44:53;;;;;;;6.15;3.15;;;;;;;26.29;18.16;102906.14;1806896;78;25734;-63
2021/10/25 10:47:19;;;;;;;5.12;2.70;;;;;;;26.30;17.37;102901.80;1744523;80;26383;-64
2021/10/25 10:49:51;;;;;;;11.00;3.17;;;;;;;26.20;17.53;102903.98;1769075;79;26308;-66
2021/10/25 10:52:30;;;;;;;7.90;3.52;;;;;;;26.23;17.21;102899.48;1772458;79;27229;-65
2021/10/25 10:55:15;;;;;;;6.75;2.87;;;;;;;26.05;17.13;102895.16;1776982;79;25760;-65
2021/10/25 11:00:44;;;;;;;14.23;4.55;;;;;;;27.00;17.25;102892.64;1758323;79;26909;-66
2021/10/25 11:03:20;;;;;;;7.05;3.42;;;;;;;27.08;16.13;102892.19;1781364;78;25795;-65
2021/10/25 11:06:08;;;;;;;12.65;3.67;;;;;;;26.75;16.80;102884.34;1768846;79;27497;-64
2021/10/25 11:08:42;;;;;;;9.93;4.50;;;;;;;26.67;16.43;102887.55;1778524;79;25848;-65
2021/10/25 11:11:19;;;;;;;11.43;3.45;;;;;;;26.70;16.36;102883.04;1781670;79;25827;-64
2021/10/25 11:14:06;;;;;;;13.80;3.50;;;;;;;26.44;16.33;102880.78;1782778;79;26743;-64
2021/10/25 11:16:42;;;;;;;7.67;3.37;;;;;;;26.48;16.88;102869.70;1758638;81;25921;-64
2021/10/25 11:19:10;;;;;;;11.48;3.70;;;;;;;26.25;16.61;102870.65;1801986;78;26973;-63
2021/10/25 11:21:51;;;;;;;6.92;3.70;;;;;;;26.06;16.42;102872.05;1788265;78;25813;-65
2021/10/25 11:24:19;;;;;;;10.93;3.77;;;;;;;25.59;16.83;102864.93;1786789;80;25876;-64
2021/10/25 11:26:56;;;;;;;7.53;2.72;;;;;;;25.33;16.81;102868.91;1778679;80;25829;-64
2021/10/25 11:29:33;;;;;;;4.25;2.67;;;;;;;24.73;16.24;102864.98;1790450;80;25753;-63
2021/10/25 11:32:10;;;;;;;6.90;2.80;;;;;;;24.02;17.04;102863.00;1791256;80;27482;-65
2021/10/25 11:34:44;;;;;;;6.55;2.95;;;;;;;23.48;17.53;102859.40;1786243;78;25811;-63
2021/10/25 11:37:18;;;;;;;10.80;3.37;;;;;;;22.95;17.88;102851.42;1768046;80;25738;-63
2021/10/25 11:40:04;;;;;;;10.03;2.83;;;;;;;22.75;17.61;102850.34;1776420;80;26501;-64
2021/10/25 11:42:36;;;;;;;6.67;3.42;;;;;;;22.25;18.05;102849.23;1777764;80;26071;-64
2021/10/25 11:45:08;;;;;;;10.20;3.10;;;;;;;21.93;18.06;102848.53;1779884;80;28591;-64
2021/10/25 11:47:38;;;;;;;8.13;2.87;;;;;;;21.25;18.64;102844.91;1780835;80;25841;-63
2021/10/25 11:50:19;;;;;;;11.12;3.87;;;;;;;20.70;19.20;102843.12;1808377;78;25744;-65
2021/10/25 11:52:54;;;;;;;9.35;3.52;;;;;;;20.24;19.87;102839.45;1786906;80;26579;-64
2021/10/25 11:55:35;;;;;;;10.28;4.72;;;;;;;19.94;20.28;102838.20;1784635;80;25774;-64
2021/10/25 11:58:15;;;;;;;10.58;4.60;;;;;;;19.74;20.45;102843.30;1785378;79;27629;-64
2021/10/25 12:00:48;;;;;;;15.28;4.20;;;;;;;19.66;20.78;102844.91;1784500;80;25829;-65
2021/10/25 12:03:27;;;;;;;10.78;3.92;;;;;;;19.68;20.67;102842.02;1768596;80;25784;-66
2021/10/25 12:05:56;;;;;;;9.55;3.22;;;;;;;19.41;20.78;102838.16;1781867;80;25779;-64
2021/10/25 12:08:23;;;;;;;11.33;3.58;;;;;;;19.27;21.08;102836.73;1783176;79;25830;-65
2021/10/25 12:10:52;;;;;;;6.30;3.67;;;;;;;19.33;21.07;102833.41;1780730;80;27492;-64
2021/10/25 12:13:19;;;;;;;12.43;3.12;;;;;;;19.48;21.33;102827.54;1780660;80;25958;-66
2021/10/25 12:15:59;;;;;;;10.28;3.37;;;;;;;19.45;20.93;102828.70;1774693;79;25729;-65
2021/10/25 12:18:26;;;;;;;8.25;3.40;;;;;;;19.52;21.33;102827.59;1781984;78;26364;-65
2021/10/25 12:20:53;;;;;;;7.47;3.15;;;;;;;19.74;21.07;102823.67;1781864;79;25720;-65
2021/10/25 12:23:24;;;;;;;7.92;3.10;;;;;;;19.91;21.06;102821.22;1788307;79;27463;-64
2021/10/25 12:25:59;;;;;;;9.90;3.60;;;;;;;20.12;21.00;102821.03;1783868;79;25729;-65
2021/10/25 12:28:27;;;;;;;11.68;3.58;;;;;;;20.34;20.74;102821.16;1788612;79;25719;-66
2021/10/25 12:31:14;;;;;;;7.35;3.15;;;;;;;20.54;20.46;102815.06;1799202;79;25840;-67
2021/10/25 12:33:44;;;;;;;5.67;3.33;;;;;;;20.78;20.39;102815.02;1800004;77;25785;-66
2021/10/25 12:36:21;;;;;;;6.78;3.40;;;;;;;21.41;20.34;102812.72;1775124;79;27476;-66
2021/10/25 12:38:55;;;;;;;11.22;3.90;;;;;;;22.11;20.15;102806.00;1781408;79;26424;-66
2021/10/25 12:41:22;;;;;;;9.70;3.12;;;;;;;22.92;19.34;102803.72;1785543;79;25763;-67
2021/10/25 12:43:56;;;;;;;9.45;3.05;;;;;;;23.45;18.41;102803.77;1791352;79;25737;-66
2021/10/25 12:46:35;;;;;;;116.28;11.60;;;;;;;24.00;18.50;102793.59;1778411;79;25745;-66
2021/10/25 12:49:04;;;;;;;9.03;3.65;;;;;;;24.42;17.78;102796.50;1789973;79;28739;-67
2021/10/25 12:51:42;;;;;;;8.05;3.17;;;;;;;24.92;17.75;102787.45;1779671;79;25812;-67
2021/10/25 12:54:13;;;;;;;6.40;3.50;;;;;;;25.23;17.29;102782.41;1788974;79;25852;-68
2021/10/25 12:56:44;;;;;;;11.78;3.55;;;;;;;25.85;17.04;102783.19;1762749;79;26549;-67
2021/10/25 12:59:14;;;;;;;7.85;3.65;;;;;;;26.47;16.51;102778.30;1787468;78;25852;-67
2021/10/25 13:01:56;;;;;;;10.65;3.83;;;;;;;26.50;15.80;102775.13;1785843;79;27487;-67
2021/10/25 13:04:26;;;;;;;7.70;4.22;;;;;;;26.13;15.84;102777.54;1777647;79;25877;-66
2021/10/25 13:06:55;;;;;;;9.58;3.52;;;;;;;25.39;15.75;102773.64;1790290;79;25913;-66
2021/10/25 13:09:22;;;;;;;8.45;4.60;;;;;;;24.46;16.63;102777.73;1781848;79;25829;-67
2021/10/25 13:11:49;;;;;;;8.88;4.60;;;;;;;23.54;17.09;102774.92;1776682;79;25893;-66
2021/10/25 13:14:15;;;;;;;12.23;3.77;;;;;;;22.78;17.57;102775.93;1780442;79;27463;-66